sensor_id;sensor_type;location;lat;lon;timestamp;pressure;altitude;pressure_sealevel;temperature;humidity
61136;BME280;47021;51.340;12.432;2022-11-20T00:02:28;99873.84;;;0.65;64.57
61136;BME280;47021;51.340;12.432;2022-11-20T00:04:53;99869.47;;;0.67;64.64
61136;BME280;47021;51.340;12.432;2022-11-20T00:07:24;99865.59;;;0.77;63.88
61136;BME280;47021;51.340;12.432;2022-11-20T00:12:26;99867.31;;;0.77;63.94
61136;BME280;47021;51.340;12.432;2022-11-20T00:14:53;99871.81;;;0.54;64.01
61136;BME280;47021;51.340;12.432;2022-11-20T00:17:18;99865.72;;;0.74;63.71
61136;BME280;47021;51.340;12.432;2022-11-20T00:19:43;99855.31;;;0.77;63.67
61136;BME280;47021;51.340;12.432;2022-11-20T00:22:10;99858.78;;;0.76;63.50
61136;BME280;47021;51.340;12.432;2022-11-20T00:24:36;99859.75;;;0.73;63.54
61136;BME280;47021;51.340;12.432;2022-11-20T00:27:01;99859.16;;;0.68;63.64
61136;BME280;47021;51.340;12.432;2022-11-20T00:29:28;99853.31;;;0.65;63.88
61136;BME280;47021;51.340;12.432;2022-11-20T00:31:55;99854.16;;;0.65;63.90
61136;BME280;47021;51.340;12.432;2022-11-20T00:34:28;99861.44;;;0.56;63.70
61136;BME280;47021;51.340;12.432;2022-11-20T00:36:54;99863.25;;;0.54;63.55
61136;BME280;47021;51.340;12.432;2022-11-20T00:39:32;99859.81;;;0.55;63.85
61136;BME280;47021;51.340;12.432;2022-11-20T00:44:39;99853.28;;;0.48;63.97
61136;BME280;47021;51.340;12.432;2022-11-20T00:47:10;99858.00;;;0.57;64.01
61136;BME280;47021;51.340;12.432;2022-11-20T00:49:35;99863.59;;;0.46;64.09
61136;BME280;47021;51.340;12.432;2022-11-20T00:52:00;99861.44;;;0.56;64.08
61136;BME280;47021;51.340;12.432;2022-11-20T00:54:25;99857.06;;;0.58;63.44
61136;BME280;47021;51.340;12.432;2022-11-20T00:56:54;99858.47;;;0.46;63.86
61136;BME280;47021;51.340;12.432;2022-11-20T00:59:22;99853.06;;;0.34;64.38
61136;BME280;47021;51.340;12.432;2022-11-20T01:03:33;99847.28;;;-0.09;66.22
61136;BME280;47021;51.340;12.432;2022-11-20T01:06:02;99847.44;;;0.26;64.69
61136;BME280;47021;51.340;12.432;2022-11-20T01:08:33;99847.19;;;0.32;64.19
61136;BME280;47021;51.340;12.432;2022-11-20T01:11:00;99848.16;;;0.11;64.66
61136;BME280;47021;51.340;12.432;2022-11-20T01:13:33;99837.25;;;0.24;64.62
61136;BME280;47021;51.340;12.432;2022-11-20T01:16:18;99849.03;;;0.28;64.50
61136;BME280;47021;51.340;12.432;2022-11-20T01:18:58;99845.50;;;0.12;64.64
61136;BME280;47021;51.340;12.432;2022-11-20T01:21:36;99851.88;;;0.04;64.87
61136;BME280;47021;51.340;12.432;2022-11-20T01:24:04;99857.22;;;-0.01;65.24
61136;BME280;47021;51.340;12.432;2022-11-20T01:26:33;99851.56;;;0.11;64.86
61136;BME280;47021;51.340;12.432;2022-11-20T01:28:59;99848.03;;;0.14;64.48
61136;BME280;47021;51.340;12.432;2022-11-20T01:31:29;99854.50;;;0.21;64.88
61136;BME280;47021;51.340;12.432;2022-11-20T01:34:04;99858.81;;;0.02;64.98
61136;BME280;47021;51.340;12.432;2022-11-20T01:36:30;99862.84;;;-0.12;65.56
61136;BME280;47021;51.340;12.432;2022-11-20T01:39:00;99857.56;;;-0.09;65.75
61136;BME280;47021;51.340;12.432;2022-11-20T01:41:28;99852.19;;;-0.03;65.23
61136;BME280;47021;51.340;12.432;2022-11-20T01:44:00;99852.53;;;0.09;65.19
61136;BME280;47021;51.340;12.432;2022-11-20T01:46:39;99852.03;;;0.19;64.88
61136;BME280;47021;51.340;12.432;2022-11-20T01:51:52;99837.03;;;0.29;64.32
61136;BME280;47021;51.340;12.432;2022-11-20T01:54:36;99832.00;;;0.27;64.15
61136;BME280;47021;51.340;12.432;2022-11-20T01:57:06;99830.09;;;0.31;64.46
61136;BME280;47021;51.340;12.432;2022-11-20T01:59:33;99833.72;;;0.27;64.62
61136;BME280;47021;51.340;12.432;2022-11-20T02:01:59;99830.41;;;0.25;64.55
61136;BME280;47021;51.340;12.432;2022-11-20T02:04:26;99829.25;;;0.30;64.20
61136;BME280;47021;51.340;12.432;2022-11-20T02:07:01;99830.84;;;0.33;64.34
61136;BME280;47021;51.340;12.432;2022-11-20T02:09:29;99828.72;;;0.24;64.12
61136;BME280;47021;51.340;12.432;2022-11-20T02:11:54;99826.78;;;0.29;64.21
61136;BME280;47021;51.340;12.432;2022-11-20T02:14:20;99828.72;;;0.24;64.20
61136;BME280;47021;51.340;12.432;2022-11-20T02:16:48;99822.81;;;0.22;64.04
61136;BME280;47021;51.340;12.432;2022-11-20T02:24:20;99817.91;;;0.17;64.54
61136;BME280;47021;51.340;12.432;2022-11-20T02:26:53;99818.88;;;0.15;64.57
61136;BME280;47021;51.340;12.432;2022-11-20T02:29:26;99818.53;;;0.04;64.73
61136;BME280;47021;51.340;12.432;2022-11-20T02:31:54;99817.56;;;0.06;65.00
61136;BME280;47021;51.340;12.432;2022-11-20T02:34:22;99818.94;;;0.13;64.88
61136;BME280;47021;51.340;12.432;2022-11-20T02:36:47;99816.31;;;0.15;65.07
61136;BME280;47021;51.340;12.432;2022-11-20T02:39:14;99817.28;;;0.12;64.77
61136;BME280;47021;51.340;12.432;2022-11-20T02:41:46;99808.13;;;-0.12;64.99
61136;BME280;47021;51.340;12.432;2022-11-20T02:44:11;99811.38;;;-0.09;65.17
61136;BME280;47021;51.340;12.432;2022-11-20T02:46:44;99806.25;;;-0.09;64.81
61136;BME280;47021;51.340;12.432;2022-11-20T02:49:16;99803.63;;;-0.07;64.84
61136;BME280;47021;51.340;12.432;2022-11-20T02:51:41;99809.66;;;-0.08;64.23
61136;BME280;47021;51.340;12.432;2022-11-20T02:54:20;99805.56;;;-0.12;64.70
61136;BME280;47021;51.340;12.432;2022-11-20T02:56:46;99806.66;;;-0.18;64.60
61136;BME280;47021;51.340;12.432;2022-11-20T02:59:18;99811.75;;;-0.36;65.71
61136;BME280;47021;51.340;12.432;2022-11-20T03:01:43;99804.66;;;-0.50;66.63
61136;BME280;47021;51.340;12.432;2022-11-20T03:04:10;99802.41;;;-0.37;66.36
61136;BME280;47021;51.340;12.432;2022-11-20T03:06:35;99797.78;;;-0.29;66.34
61136;BME280;47021;51.340;12.432;2022-11-20T03:09:18;99798.22;;;-0.58;67.47
61136;BME280;47021;51.340;12.432;2022-11-20T03:11:50;99799.13;;;-0.41;67.30
61136;BME280;47021;51.340;12.432;2022-11-20T03:14:24;99796.81;;;-0.27;66.43
61136;BME280;47021;51.340;12.432;2022-11-20T03:16:55;99790.84;;;-0.27;66.35
61136;BME280;47021;51.340;12.432;2022-11-20T03:19:27;99792.94;;;-0.17;66.33
61136;BME280;47021;51.340;12.432;2022-11-20T03:22:01;99795.41;;;-0.34;66.95
61136;BME280;47021;51.340;12.432;2022-11-20T03:24:27;99794.25;;;-0.27;66.73
61136;BME280;47021;51.340;12.432;2022-11-20T03:26:52;99796.66;;;-0.42;67.11
61136;BME280;47021;51.340;12.432;2022-11-20T03:29:37;99792.50;;;-0.45;67.49
61136;BME280;47021;51.340;12.432;2022-11-20T03:32:02;99790.19;;;-0.51;67.66
61136;BME280;47021;51.340;12.432;2022-11-20T03:34:28;99783.50;;;-0.35;67.31
61136;BME280;47021;51.340;12.432;2022-11-20T03:37:06;99783.72;;;-0.21;66.62
61136;BME280;47021;51.340;12.432;2022-11-20T03:39:46;99775.63;;;-0.12;66.31
61136;BME280;47021;51.340;12.432;2022-11-20T03:42:11;99770.06;;;-0.03;65.92
61136;BME280;47021;51.340;12.432;2022-11-20T03:44:37;99776.91;;;-0.22;66.48
61136;BME280;47021;51.340;12.432;2022-11-20T03:47:04;99769.84;;;-0.17;66.45
61136;BME280;47021;51.340;12.432;2022-11-20T03:49:36;99763.75;;;-0.14;66.40
61136;BME280;47021;51.340;12.432;2022-11-20T03:52:08;99770.31;;;-0.27;66.28
61136;BME280;47021;51.340;12.432;2022-11-20T03:54:38;99763.22;;;-0.21;66.11
61136;BME280;47021;51.340;12.432;2022-11-20T03:57:03;99767.34;;;-0.37;66.46
61136;BME280;47021;51.340;12.432;2022-11-20T03:59:35;99767.97;;;-0.32;66.00
61136;BME280;47021;51.340;12.432;2022-11-20T04:02:01;99762.56;;;-0.26;66.63
61136;BME280;47021;51.340;12.432;2022-11-20T04:09:54;99775.63;;;-0.12;65.71
61136;BME280;47021;51.340;12.432;2022-11-20T04:12:26;99772.69;;;-0.04;65.75
61136;BME280;47021;51.340;12.432;2022-11-20T04:14:52;99771.03;;;-0.05;65.23
61136;BME280;47021;51.340;12.432;2022-11-20T04:17:20;99771.16;;;-0.08;65.11
61136;BME280;47021;51.340;12.432;2022-11-20T04:19:46;99771.16;;;-0.08;65.06
61136;BME280;47021;51.340;12.432;2022-11-20T04:22:11;99769.34;;;-0.06;65.09
61136;BME280;47021;51.340;12.432;2022-11-20T04:27:22;99768.38;;;-0.22;65.21
61136;BME280;47021;51.340;12.432;2022-11-20T04:29:48;99766.53;;;-0.19;65.50
61136;BME280;47021;51.340;12.432;2022-11-20T04:32:14;99764.94;;;-0.21;65.22
61136;BME280;47021;51.340;12.432;2022-11-20T04:34:41;99772.69;;;-0.23;65.21
61136;BME280;47021;51.340;12.432;2022-11-20T04:37:07;99765.06;;;-0.24;64.75
61136;BME280;47021;51.340;12.432;2022-11-20T04:39:34;99769.22;;;-0.22;65.19
61136;BME280;47021;51.340;12.432;2022-11-20T04:42:00;99763.34;;;-0.24;65.13
61136;BME280;47021;51.340;12.432;2022-11-20T04:44:25;99760.69;;;-0.22;64.96
61136;BME280;47021;51.340;12.432;2022-11-20T04:46:51;99757.44;;;-0.26;64.78
61136;BME280;47021;51.340;12.432;2022-11-20T04:49:17;99753.84;;;-0.22;64.85
61136;BME280;47021;51.340;12.432;2022-11-20T04:51:42;99755.50;;;-0.21;64.83
61136;BME280;47021;51.340;12.432;2022-11-20T04:54:08;99752.09;;;-0.21;64.46
61136;BME280;47021;51.340;12.432;2022-11-20T04:56:34;99755.91;;;-0.30;64.51
61136;BME280;47021;51.340;12.432;2022-11-20T04:59:02;99755.63;;;-0.42;64.96
61136;BME280;47021;51.340;12.432;2022-11-20T05:01:29;99751.06;;;-0.75;65.86
61136;BME280;47021;51.340;12.432;2022-11-20T05:03:57;99760.78;;;-1.01;66.74
61136;BME280;47021;51.340;12.432;2022-11-20T05:06:22;99759.94;;;-1.02;67.29
61136;BME280;47021;51.340;12.432;2022-11-20T05:08:47;99768.56;;;-0.84;66.51
61136;BME280;47021;51.340;12.432;2022-11-20T05:11:13;99762.34;;;-0.79;66.61
61136;BME280;47021;51.340;12.432;2022-11-20T05:13:47;99755.03;;;-0.67;66.35
61136;BME280;47021;51.340;12.432;2022-11-20T05:16:23;99754.41;;;-0.73;66.05
61136;BME280;47021;51.340;12.432;2022-11-20T05:21:32;99748.50;;;-0.75;66.65
61136;BME280;47021;51.340;12.432;2022-11-20T05:23:57;99754.09;;;-0.85;66.57
61136;BME280;47021;51.340;12.432;2022-11-20T05:26:22;99758.75;;;-0.75;66.39
61136;BME280;47021;51.340;12.432;2022-11-20T05:29:00;99760.06;;;-1.05;66.91
61136;BME280;47021;51.340;12.432;2022-11-20T05:31:32;99751.06;;;-0.75;66.37
61136;BME280;47021;51.340;12.432;2022-11-20T05:34:00;99753.16;;;-0.64;65.90
61136;BME280;47021;51.340;12.432;2022-11-20T05:36:25;99753.34;;;-0.68;65.75
61136;BME280;47021;51.340;12.432;2022-11-20T05:39:02;99746.81;;;-0.76;65.67
61136;BME280;47021;51.340;12.432;2022-11-20T05:41:27;99740.81;;;-0.75;65.64
61136;BME280;47021;51.340;12.432;2022-11-20T05:43:59;99735.63;;;-0.73;65.86
61136;BME280;47021;51.340;12.432;2022-11-20T05:46:30;99730.16;;;-1.04;66.50
61136;BME280;47021;51.340;12.432;2022-11-20T05:48:57;99724.19;;;-1.05;66.76
61136;BME280;47021;51.340;12.432;2022-11-20T05:54:08;99727.78;;;-1.09;66.79
61136;BME280;47021;51.340;12.432;2022-11-20T05:56:39;99729.38;;;-1.06;67.02
61136;BME280;47021;51.340;12.432;2022-11-20T05:59:06;99724.47;;;-1.11;66.94
61136;BME280;47021;51.340;12.432;2022-11-20T06:01:37;99726.94;;;-1.09;66.84
61136;BME280;47021;51.340;12.432;2022-11-20T06:04:20;99726.75;;;-1.05;66.46
61136;BME280;47021;51.340;12.432;2022-11-20T06:06:48;99725.72;;;-1.01;66.68
61136;BME280;47021;51.340;12.432;2022-11-20T06:09:13;99722.47;;;-1.04;66.79
61136;BME280;47021;51.340;12.432;2022-11-20T06:11:40;99715.44;;;-0.99;66.35
61136;BME280;47021;51.340;12.432;2022-11-20T06:14:05;99722.47;;;-1.04;66.31
61136;BME280;47021;51.340;12.432;2022-11-20T06:19:14;99731.00;;;-1.04;66.19
61136;BME280;47021;51.340;12.432;2022-11-20T06:21:47;99721.84;;;-1.29;66.79
61136;BME280;47021;51.340;12.432;2022-11-20T06:24:12;99728.06;;;-1.15;66.83
61136;BME280;47021;51.340;12.432;2022-11-20T06:26:45;99725.16;;;-1.07;66.25
61136;BME280;47021;51.340;12.432;2022-11-20T06:29:12;99723.34;;;-1.05;66.23
61136;BME280;47021;51.340;12.432;2022-11-20T06:31:43;99731.19;;;-1.08;66.40
61136;BME280;47021;51.340;12.432;2022-11-20T06:34:08;99726.94;;;-1.09;66.17
61136;BME280;47021;51.340;12.432;2022-11-20T06:36:33;99724.88;;;-1.21;66.39
61136;BME280;47021;51.340;12.432;2022-11-20T06:41:28;99732.19;;;-1.12;66.38
61136;BME280;47021;51.340;12.432;2022-11-20T06:43:55;99732.56;;;-1.21;66.69
61136;BME280;47021;51.340;12.432;2022-11-20T06:46:26;99727.25;;;-1.17;66.71
61136;BME280;47021;51.340;12.432;2022-11-20T06:48:59;99723.63;;;-1.11;66.31
61136;BME280;47021;51.340;12.432;2022-11-20T06:51:24;99724.50;;;-1.12;66.91
61136;BME280;47021;51.340;12.432;2022-11-20T06:53:54;99727.03;;;-1.11;66.82
61136;BME280;47021;51.340;12.432;2022-11-20T06:56:19;99726.63;;;-1.02;66.46
61136;BME280;47021;51.340;12.432;2022-11-20T07:01:34;99725.16;;;-1.07;66.47
61136;BME280;47021;51.340;12.432;2022-11-20T07:04:11;99729.28;;;-1.03;66.38
61136;BME280;47021;51.340;12.432;2022-11-20T07:06:37;99723.34;;;-1.05;66.23
61136;BME280;47021;51.340;12.432;2022-11-20T07:11:42;99725.78;;;-1.02;66.92
61136;BME280;47021;51.340;12.432;2022-11-20T07:14:14;99719.78;;;-1.01;66.51
61136;BME280;47021;51.340;12.432;2022-11-20T07:19:22;99718.19;;;-1.04;66.95
61136;BME280;47021;51.340;12.432;2022-11-20T07:21:59;99724.25;;;-1.06;66.75
61136;BME280;47021;51.340;12.432;2022-11-20T07:24:32;99724.94;;;-1.03;67.07
61136;BME280;47021;51.340;12.432;2022-11-20T07:26:58;99716.69;;;-0.89;66.29
61136;BME280;47021;51.340;12.432;2022-11-20T07:32:13;99727.97;;;-0.93;66.65
61136;BME280;47021;51.340;12.432;2022-11-20T07:34:38;99720.56;;;-0.60;66.22
61136;BME280;47021;51.340;12.432;2022-11-20T07:37:04;99712.25;;;-0.47;65.78
61136;BME280;47021;51.340;12.432;2022-11-20T07:39:36;99717.63;;;-0.34;65.23
61136;BME280;47021;51.340;12.432;2022-11-20T07:42:02;99713.50;;;-0.37;65.34
61136;BME280;47021;51.340;12.432;2022-11-20T07:44:28;99719.44;;;-0.36;65.33
61136;BME280;47021;51.340;12.432;2022-11-20T07:46:54;99724.16;;;-0.46;65.48
61136;BME280;47021;51.340;12.432;2022-11-20T07:49:24;99717.78;;;-0.37;65.65
61136;BME280;47021;51.340;12.432;2022-11-20T07:52:05;99718.84;;;-0.41;65.50
61136;BME280;47021;51.340;12.432;2022-11-20T07:54:32;99711.06;;;-0.40;65.60
61136;BME280;47021;51.340;12.432;2022-11-20T07:57:00;99716.84;;;-0.35;65.90
61136;BME280;47021;51.340;12.432;2022-11-20T07:59:26;99708.84;;;-0.10;65.10
61136;BME280;47021;51.340;12.432;2022-11-20T08:01:56;99710.13;;;-0.02;64.80
61136;BME280;47021;51.340;12.432;2022-11-20T08:04:23;99704.34;;;0.12;65.02
61136;BME280;47021;51.340;12.432;2022-11-20T08:06:51;99702.31;;;0.19;64.72
61136;BME280;47021;51.340;12.432;2022-11-20T08:09:28;99699.63;;;0.22;64.88
61136;BME280;47021;51.340;12.432;2022-11-20T08:12:01;99700.78;;;-0.03;65.47
61136;BME280;47021;51.340;12.432;2022-11-20T08:14:32;99696.84;;;0.26;65.30
61136;BME280;47021;51.340;12.432;2022-11-20T08:17:06;99698.66;;;0.41;65.07
61136;BME280;47021;51.340;12.432;2022-11-20T08:19:41;99695.03;;;0.45;65.12
61136;BME280;47021;51.340;12.432;2022-11-20T08:24:50;99697.75;;;0.25;65.11
61136;BME280;47021;51.340;12.432;2022-11-20T08:27:29;99702.00;;;0.43;64.69
61136;BME280;47021;51.340;12.432;2022-11-20T08:30:04;99700.41;;;0.05;64.92
61136;BME280;47021;51.340;12.432;2022-11-20T08:32:38;99695.84;;;0.29;64.99
61136;BME280;47021;51.340;12.432;2022-11-20T08:37:59;99692.75;;;0.73;63.99
61136;BME280;47021;51.340;12.432;2022-11-20T08:43:13;99700.69;;;0.18;65.13
61136;BME280;47021;51.340;12.432;2022-11-20T08:45:40;99695.88;;;0.46;64.97
61136;BME280;47021;51.340;12.432;2022-11-20T08:48:13;99701.00;;;-0.07;66.34
61136;BME280;47021;51.340;12.432;2022-11-20T08:50:45;99698.44;;;0.63;64.90
61136;BME280;47021;51.340;12.432;2022-11-20T08:53:12;99706.22;;;0.61;64.70
61136;BME280;47021;51.340;12.432;2022-11-20T08:55:56;99708.19;;;0.04;65.93
61136;BME280;47021;51.340;12.432;2022-11-20T08:58:21;99703.28;;;-0.20;66.98
61136;BME280;47021;51.340;12.432;2022-11-20T09:00:54;99704.34;;;0.12;66.31
61136;BME280;47021;51.340;12.432;2022-11-20T09:03:21;99702.13;;;0.40;65.63
61136;BME280;47021;51.340;12.432;2022-11-20T09:06:00;99702.38;;;0.70;64.87
61136;BME280;47021;51.340;12.432;2022-11-20T09:08:27;99701.38;;;0.38;65.61
61136;BME280;47021;51.340;12.432;2022-11-20T09:10:54;99692.53;;;0.78;64.86
61136;BME280;47021;51.340;12.432;2022-11-20T09:13:24;99694.28;;;0.60;65.16
61136;BME280;47021;51.340;12.432;2022-11-20T09:15:55;99696.16;;;0.74;64.72
61136;BME280;47021;51.340;12.432;2022-11-20T09:18:21;99697.84;;;0.58;65.34
61136;BME280;47021;51.340;12.432;2022-11-20T09:20:49;99698.22;;;0.67;65.34
61136;BME280;47021;51.340;12.432;2022-11-20T09:28:55;99694.84;;;1.17;64.70
61136;BME280;47021;51.340;12.432;2022-11-20T09:31:33;99698.22;;;0.67;65.72
61136;BME280;47021;51.340;12.432;2022-11-20T09:34:13;99691.72;;;1.10;64.99
61136;BME280;47021;51.340;12.432;2022-11-20T09:36:45;99693.44;;;0.77;65.77
61136;BME280;47021;51.340;12.432;2022-11-20T09:39:10;99690.22;;;0.56;67.16
61136;BME280;47021;51.340;12.432;2022-11-20T09:50:11;99691.19;;;1.85;63.50
61136;BME280;47021;51.340;12.432;2022-11-20T09:54:53;99686.88;;;1.21;65.52
61136;BME280;47021;51.340;12.432;2022-11-20T09:57:25;99681.88;;;1.67;64.54
61136;BME280;47021;51.340;12.432;2022-11-20T09:59:55;99685.38;;;1.97;63.57
61136;BME280;47021;51.340;12.432;2022-11-20T10:07:30;99676.78;;;1.34;65.62
61136;BME280;47021;51.340;12.432;2022-11-20T10:10:00;99668.31;;;1.79;64.36
61136;BME280;47021;51.340;12.432;2022-11-20T10:12:30;99664.19;;;1.92;63.95
61136;BME280;47021;51.340;12.432;2022-11-20T10:25:42;99648.72;;;2.37;64.46
61136;BME280;47021;51.340;12.432;2022-11-20T10:28:22;99651.94;;;2.27;64.26
61136;BME280;47021;51.340;12.432;2022-11-20T10:31:02;99644.88;;;2.14;64.96
61136;BME280;47021;51.340;12.432;2022-11-20T10:33:29;99644.22;;;2.41;64.39
61136;BME280;47021;51.340;12.432;2022-11-20T10:36:14;99638.59;;;2.34;65.01
61136;BME280;47021;51.340;12.432;2022-11-20T10:38:50;99639.47;;;1.74;66.38
61136;BME280;47021;51.340;12.432;2022-11-20T10:41:23;99624.59;;;2.24;65.92
61136;BME280;47021;51.340;12.432;2022-11-20T10:46:36;99624.41;;;2.85;62.68
61136;BME280;47021;51.340;12.432;2022-11-20T10:49:04;99626.06;;;2.72;63.53
61136;BME280;47021;51.340;12.432;2022-11-20T11:01:24;99614.94;;;2.85;63.52
61136;BME280;47021;51.340;12.432;2022-11-20T11:08:51;99615.78;;;3.00;63.97
61136;BME280;47021;51.340;12.432;2022-11-20T11:11:23;99602.38;;;3.36;63.10
61136;BME280;47021;51.340;12.432;2022-11-20T11:13:49;99607.38;;;2.68;64.14
61136;BME280;47021;51.340;12.432;2022-11-20T11:16:25;99599.38;;;2.59;64.45
61136;BME280;47021;51.340;12.432;2022-11-20T11:19:02;99597.44;;;2.76;64.33
61136;BME280;47021;51.340;12.432;2022-11-20T11:21:27;99589.69;;;2.48;64.25
61136;BME280;47021;51.340;12.432;2022-11-20T11:24:00;99589.88;;;2.59;64.75
61136;BME280;47021;51.340;12.432;2022-11-20T11:26:31;99588.50;;;3.10;63.36
61136;BME280;47021;51.340;12.432;2022-11-20T11:28:58;99588.31;;;2.43;65.27
61136;BME280;47021;51.340;12.432;2022-11-20T11:31:28;99579.78;;;3.39;64.04
61136;BME280;47021;51.340;12.432;2022-11-20T11:36:37;99584.66;;;3.97;63.03
61136;BME280;47021;51.340;12.432;2022-11-20T11:39:14;99580.75;;;3.92;62.93
61136;BME280;47021;51.340;12.432;2022-11-20T11:41:41;99579.91;;;3.91;61.72
61136;BME280;47021;51.340;12.432;2022-11-20T11:44:21;99571.84;;;3.96;61.24
61136;BME280;47021;51.340;12.432;2022-11-20T11:46:51;99573.97;;;3.77;61.58
61136;BME280;47021;51.340;12.432;2022-11-20T11:49:23;99564.47;;;3.77;61.04
61136;BME280;47021;51.340;12.432;2022-11-20T11:56:58;99579.59;;;3.69;60.86
61136;BME280;47021;51.340;12.432;2022-11-20T12:02:15;99579.94;;;3.10;61.88
61136;BME280;47021;51.340;12.432;2022-11-20T12:04:54;99574.44;;;3.42;61.64
61136;BME280;47021;51.340;12.432;2022-11-20T12:07:27;99574.09;;;3.34;61.33
61136;BME280;47021;51.340;12.432;2022-11-20T12:09:57;99571.16;;;3.26;62.02
61136;BME280;47021;51.340;12.432;2022-11-20T12:12:24;99568.22;;;3.86;61.06
61136;BME280;47021;51.340;12.432;2022-11-20T12:14:53;99561.13;;;4.02;60.13
61136;BME280;47021;51.340;12.432;2022-11-20T12:17:21;99558.66;;;3.74;60.91
61136;BME280;47021;51.340;12.432;2022-11-20T12:19:46;99556.16;;;3.99;60.41
61136;BME280;47021;51.340;12.432;2022-11-20T12:25:11;99547.31;;;4.28;59.30
61136;BME280;47021;51.340;12.432;2022-11-20T12:30:17;99553.25;;;4.03;60.03
61136;BME280;47021;51.340;12.432;2022-11-20T12:32:48;99546.38;;;4.29;59.72
61136;BME280;47021;51.340;12.432;2022-11-20T12:40:48;99540.28;;;3.66;61.18
61136;BME280;47021;51.340;12.432;2022-11-20T12:45:49;99536.47;;;3.71;60.67
61136;BME280;47021;51.340;12.432;2022-11-20T12:48:25;99537.94;;;3.75;60.54
61136;BME280;47021;51.340;12.432;2022-11-20T12:53:50;99521.47;;;4.41;59.41
61136;BME280;47021;51.340;12.432;2022-11-20T12:56:24;99522.91;;;4.70;58.46
61136;BME280;47021;51.340;12.432;2022-11-20T13:03:51;99538.00;;;3.74;60.12
61136;BME280;47021;51.340;12.432;2022-11-20T13:06:21;99531.63;;;3.79;60.31
61136;BME280;47021;51.340;12.432;2022-11-20T13:19:09;99538.25;;;3.83;58.83
61136;BME280;47021;51.340;12.432;2022-11-20T13:24:06;99532.34;;;4.46;57.35
61136;BME280;47021;51.340;12.432;2022-11-20T13:26:32;99539.38;;;3.79;58.82
61136;BME280;47021;51.340;12.432;2022-11-20T13:29:16;99530.41;;;3.58;60.10
61136;BME280;47021;51.340;12.432;2022-11-20T13:31:43;99523.31;;;4.13;58.71
61136;BME280;47021;51.340;12.432;2022-11-20T13:34:11;99530.13;;;4.77;56.78
61136;BME280;47021;51.340;12.432;2022-11-20T13:36:51;99519.81;;;4.77;56.89
61136;BME280;47021;51.340;12.432;2022-11-20T13:39:28;99505.41;;;4.86;56.18
61136;BME280;47021;51.340;12.432;2022-11-20T13:41:59;99501.50;;;4.80;56.08
61136;BME280;47021;51.340;12.432;2022-11-20T13:44:30;99496.59;;;5.01;56.14
61136;BME280;47021;51.340;12.432;2022-11-20T13:46:58;99491.59;;;4.74;56.28
61136;BME280;47021;51.340;12.432;2022-11-20T14:02:19;99497.09;;;4.32;57.13
61136;BME280;47021;51.340;12.432;2022-11-20T14:04:47;99497.22;;;4.31;56.33
61136;BME280;47021;51.340;12.432;2022-11-20T14:07:13;99494.69;;;4.67;55.87
61136;BME280;47021;51.340;12.432;2022-11-20T14:09:48;99487.63;;;4.81;55.43
61136;BME280;47021;51.340;12.432;2022-11-20T14:12:15;99489.97;;;4.97;55.23
61136;BME280;47021;51.340;12.432;2022-11-20T14:14:49;99498.19;;;4.78;55.65
61136;BME280;47021;51.340;12.432;2022-11-20T14:19:49;99490.69;;;4.99;55.79
61136;BME280;47021;51.340;12.432;2022-11-20T14:22:24;99489.47;;;4.92;56.40
61136;BME280;47021;51.340;12.432;2022-11-20T14:30:52;99500.38;;;4.59;59.71
61136;BME280;47021;51.340;12.432;2022-11-20T14:33:16;99493.97;;;4.65;59.72
61136;BME280;47021;51.340;12.432;2022-11-20T14:35:49;99490.88;;;4.60;59.93
61136;BME280;47021;51.340;12.432;2022-11-20T14:38:18;99486.84;;;4.56;60.14
61136;BME280;47021;51.340;12.432;2022-11-20T14:40:44;99491.31;;;4.41;60.36
61136;BME280;47021;51.340;12.432;2022-11-20T14:45:42;99503.66;;;3.86;61.31
61136;BME280;47021;51.340;12.432;2022-11-20T14:48:13;99500.38;;;4.09;60.92
61136;BME280;47021;51.340;12.432;2022-11-20T14:50:39;99504.19;;;4.03;60.94
61136;BME280;47021;51.340;12.432;2022-11-20T14:53:05;99504.59;;;3.85;61.17
61136;BME280;47021;51.340;12.432;2022-11-20T14:55:33;99500.81;;;3.64;62.04
61136;BME280;47021;51.340;12.432;2022-11-20T14:58:03;99500.38;;;3.96;60.91
61136;BME280;47021;51.340;12.432;2022-11-20T15:00:30;99495.09;;;3.98;60.60
61136;BME280;47021;51.340;12.432;2022-11-20T15:02:55;99492.94;;;3.52;62.30
61136;BME280;47021;51.340;12.432;2022-11-20T15:05:22;99496.63;;;3.88;61.24
61136;BME280;47021;51.340;12.432;2022-11-20T15:07:51;99503.88;;;3.83;61.28
61136;BME280;47021;51.340;12.432;2022-11-20T15:10:27;99506.41;;;3.70;61.77
61136;BME280;47021;51.340;12.432;2022-11-20T15:12:53;99505.50;;;3.84;61.36
61136;BME280;47021;51.340;12.432;2022-11-20T15:17:59;99513.63;;;3.65;61.70
61136;BME280;47021;51.340;12.432;2022-11-20T15:20:26;99512.16;;;3.61;61.94
61136;BME280;47021;51.340;12.432;2022-11-20T15:22:58;99516.88;;;3.28;63.00
61136;BME280;47021;51.340;12.432;2022-11-20T15:25:23;99510.88;;;3.41;62.85
61136;BME280;47021;51.340;12.432;2022-11-20T15:27:52;99504.88;;;3.41;62.60
61136;BME280;47021;51.340;12.432;2022-11-20T15:30:20;99510.56;;;3.19;63.10
61136;BME280;47021;51.340;12.432;2022-11-20T15:32:47;99509.56;;;3.08;63.08
61136;BME280;47021;51.340;12.432;2022-11-20T15:35:14;99508.19;;;3.16;62.37
61136;BME280;47021;51.340;12.432;2022-11-20T15:37:40;99496.19;;;3.42;61.95
61136;BME280;47021;51.340;12.432;2022-11-20T15:40:17;99498.94;;;3.26;62.27
61136;BME280;47021;51.340;12.432;2022-11-20T15:42:42;99496.59;;;3.09;62.63
61136;BME280;47021;51.340;12.432;2022-11-20T15:45:10;99508.81;;;3.20;62.58
61136;BME280;47021;51.340;12.432;2022-11-20T15:50:36;99506.22;;;3.20;62.45
61136;BME280;47021;51.340;12.432;2022-11-20T15:53:03;99504.81;;;3.28;62.32
61136;BME280;47021;51.340;12.432;2022-11-20T15:55:32;99510.13;;;3.13;62.36
61136;BME280;47021;51.340;12.432;2022-11-20T15:58:00;99514.69;;;3.22;62.16
61136;BME280;47021;51.340;12.432;2022-11-20T16:00:26;99509.22;;;3.14;62.51
61136;BME280;47021;51.340;12.432;2022-11-20T16:02:51;99508.22;;;3.02;63.01
61136;BME280;47021;51.340;12.432;2022-11-20T16:05:16;99506.56;;;3.01;62.63